sensor_id;sensor_type;location;lat;lon;timestamp;P1;durP1;ratioP1;P2;durP2;ratioP2
2850;SDS011;1433;49.976;8.342;2023-03-24T00:00:15;3.87;;;3.57;;
2850;SDS011;1433;49.976;8.342;2023-03-24T00:02:43;4.50;;;3.80;;
2850;SDS011;1433;49.976;8.342;2023-03-24T00:05:13;5.20;;;3.60;;
2850;SDS011;1433;49.976;8.342;2023-03-24T00:07:41;3.60;;;3.30;;
2850;SDS011;1433;49.976;8.342;2023-03-24T00:10:09;7.10;;;3.53;;
2850;SDS011;1433;49.976;8.342;2023-03-24T00:12:39;4.20;;;3.80;;
2850;SDS011;1433;49.976;8.342;2023-03-24T00:15:08;3.87;;;3.60;;
2850;SDS011;1433;49.976;8.342;2023-03-24T00:17:37;5.97;;;4.47;;
2850;SDS011;1433;49.976;8.342;2023-03-24T00:20:05;4.73;;;4.33;;
2850;SDS011;1433;49.976;8.342;2023-03-24T00:22:35;6.57;;;4.53;;
2850;SDS011;1433;49.976;8.342;2023-03-24T00:25:02;3.67;;;3.37;;
2850;SDS011;1433;49.976;8.342;2023-03-24T00:27:29;3.30;;;3.00;;
2850;SDS011;1433;49.976;8.342;2023-03-24T00:29:56;5.23;;;4.30;;
2850;SDS011;1433;49.976;8.342;2023-03-24T00:32:24;4.50;;;3.40;;
2850;SDS011;1433;49.976;8.342;2023-03-24T00:34:52;4.23;;;3.10;;
2850;SDS011;1433;49.976;8.342;2023-03-24T00:37:19;3.43;;;3.10;;
2850;SDS011;1433;49.976;8.342;2023-03-24T00:39:45;3.83;;;3.43;;
2850;SDS011;1433;49.976;8.342;2023-03-24T00:42:11;4.33;;;3.93;;
2850;SDS011;1433;49.976;8.342;2023-03-24T00:44:38;3.77;;;3.47;;
2850;SDS011;1433;49.976;8.342;2023-03-24T00:47:05;3.90;;;3.60;;
2850;SDS011;1433;49.976;8.342;2023-03-24T00:49:31;3.87;;;3.17;;
2850;SDS011;1433;49.976;8.342;2023-03-24T00:52:18;6.63;;;5.93;;
2850;SDS011;1433;49.976;8.342;2023-03-24T00:54:50;5.10;;;4.60;;
2850;SDS011;1433;49.976;8.342;2023-03-24T00:57:23;5.80;;;5.30;;
2850;SDS011;1433;49.976;8.342;2023-03-24T00:59:51;5.83;;;5.03;;
2850;SDS011;1433;49.976;8.342;2023-03-24T01:02:22;5.13;;;4.73;;
2850;SDS011;1433;49.976;8.342;2023-03-24T01:04:51;4.47;;;4.07;;
2850;SDS011;1433;49.976;8.342;2023-03-24T01:07:20;5.33;;;4.40;;
2850;SDS011;1433;49.976;8.342;2023-03-24T01:09:47;4.00;;;3.70;;
2850;SDS011;1433;49.976;8.342;2023-03-24T01:12:17;4.63;;;4.23;;
2850;SDS011;1433;49.976;8.342;2023-03-24T01:14:44;5.47;;;4.67;;
2850;SDS011;1433;49.976;8.342;2023-03-24T01:17:20;5.00;;;4.60;;
2850;SDS011;1433;49.976;8.342;2023-03-24T01:19:54;5.40;;;4.90;;
2850;SDS011;1433;49.976;8.342;2023-03-24T01:22:21;5.07;;;4.57;;
2850;SDS011;1433;49.976;8.342;2023-03-24T01:24:54;5.10;;;4.50;;
2850;SDS011;1433;49.976;8.342;2023-03-24T01:27:21;5.47;;;4.97;;
2850;SDS011;1433;49.976;8.342;2023-03-24T01:29:48;5.37;;;4.97;;
2850;SDS011;1433;49.976;8.342;2023-03-24T01:32:14;5.70;;;5.17;;
2850;SDS011;1433;49.976;8.342;2023-03-24T01:34:40;4.83;;;4.30;;
2850;SDS011;1433;49.976;8.342;2023-03-24T01:37:06;5.00;;;4.60;;
2850;SDS011;1433;49.976;8.342;2023-03-24T01:39:33;5.80;;;4.30;;
2850;SDS011;1433;49.976;8.342;2023-03-24T01:42:00;5.97;;;5.20;;
2850;SDS011;1433;49.976;8.342;2023-03-24T01:44:28;5.63;;;5.13;;
2850;SDS011;1433;49.976;8.342;2023-03-24T01:47:02;6.43;;;5.20;;
2850;SDS011;1433;49.976;8.342;2023-03-24T01:49:57;5.93;;;5.20;;
2850;SDS011;1433;49.976;8.342;2023-03-24T01:52:14;4.50;;;4.10;;
2850;SDS011;1433;49.976;8.342;2023-03-24T01:54:45;5.23;;;4.50;;
2850;SDS011;1433;49.976;8.342;2023-03-24T01:57:16;4.43;;;4.10;;
2850;SDS011;1433;49.976;8.342;2023-03-24T01:59:46;4.37;;;3.97;;
2850;SDS011;1433;49.976;8.342;2023-03-24T02:02:19;5.53;;;5.13;;
2850;SDS011;1433;49.976;8.342;2023-03-24T02:04:51;6.50;;;5.00;;
2850;SDS011;1433;49.976;8.342;2023-03-24T02:07:32;3.90;;;3.57;;
2850;SDS011;1433;49.976;8.342;2023-03-24T02:10:03;5.27;;;4.50;;
2850;SDS011;1433;49.976;8.342;2023-03-24T02:12:34;4.97;;;4.57;;
2850;SDS011;1433;49.976;8.342;2023-03-24T02:15:02;4.63;;;3.97;;
2850;SDS011;1433;49.976;8.342;2023-03-24T02:17:38;5.20;;;4.00;;
2850;SDS011;1433;49.976;8.342;2023-03-24T02:39:39;5.10;;;4.70;;
2850;SDS011;1433;49.976;8.342;2023-03-24T02:45:06;5.43;;;4.93;;
2850;SDS011;1433;49.976;8.342;2023-03-24T02:50:17;6.77;;;4.60;;
2850;SDS011;1433;49.976;8.342;2023-03-24T02:52:50;4.77;;;4.37;;
2850;SDS011;1433;49.976;8.342;2023-03-24T02:55:30;5.53;;;4.93;;
2850;SDS011;1433;49.976;8.342;2023-03-24T03:00:53;7.50;;;5.50;;
2850;SDS011;1433;49.976;8.342;2023-03-24T03:03:38;5.13;;;4.63;;
2850;SDS011;1433;49.976;8.342;2023-03-24T03:06:26;4.90;;;4.50;;
2850;SDS011;1433;49.976;8.342;2023-03-24T03:08:57;6.23;;;5.27;;
2850;SDS011;1433;49.976;8.342;2023-03-24T03:11:27;4.93;;;4.53;;
2850;SDS011;1433;49.976;8.342;2023-03-24T03:13:55;6.00;;;5.50;;
2850;SDS011;1433;49.976;8.342;2023-03-24T03:16:32;5.83;;;5.30;;
2850;SDS011;1433;49.976;8.342;2023-03-24T03:19:02;7.33;;;5.47;;
2850;SDS011;1433;49.976;8.342;2023-03-24T03:21:35;8.27;;;6.10;;
2850;SDS011;1433;49.976;8.342;2023-03-24T03:24:06;6.50;;;5.90;;
2850;SDS011;1433;49.976;8.342;2023-03-24T03:26:35;6.10;;;5.50;;
2850;SDS011;1433;49.976;8.342;2023-03-24T03:29:07;5.73;;;5.23;;
2850;SDS011;1433;49.976;8.342;2023-03-24T03:31:43;6.83;;;6.33;;
2850;SDS011;1433;49.976;8.342;2023-03-24T03:34:16;6.90;;;5.63;;
2850;SDS011;1433;49.976;8.342;2023-03-24T03:36:47;5.50;;;5.00;;
2850;SDS011;1433;49.976;8.342;2023-03-24T03:39:29;6.17;;;5.67;;
2850;SDS011;1433;49.976;8.342;2023-03-24T03:41:59;6.33;;;5.47;;
2850;SDS011;1433;49.976;8.342;2023-03-24T03:44:27;7.53;;;6.83;;
2850;SDS011;1433;49.976;8.342;2023-03-24T03:46:54;7.37;;;6.77;;
2850;SDS011;1433;49.976;8.342;2023-03-24T03:49:22;6.17;;;5.67;;
2850;SDS011;1433;49.976;8.342;2023-03-24T03:51:56;7.50;;;6.73;;
2850;SDS011;1433;49.976;8.342;2023-03-24T03:54:23;7.13;;;6.43;;
2850;SDS011;1433;49.976;8.342;2023-03-24T03:56:52;6.20;;;5.80;;
2850;SDS011;1433;49.976;8.342;2023-03-24T03:59:25;7.33;;;6.73;;
2850;SDS011;1433;49.976;8.342;2023-03-24T04:01:55;12.40;;;6.17;;
2850;SDS011;1433;49.976;8.342;2023-03-24T04:04:45;5.37;;;4.87;;
2850;SDS011;1433;49.976;8.342;2023-03-24T04:07:23;5.37;;;4.87;;
2850;SDS011;1433;49.976;8.342;2023-03-24T04:10:05;6.60;;;5.83;;
2850;SDS011;1433;49.976;8.342;2023-03-24T04:15:39;5.40;;;4.90;;
2850;SDS011;1433;49.976;8.342;2023-03-24T04:18:39;7.33;;;5.73;;
2850;SDS011;1433;49.976;8.342;2023-03-24T04:27:04;5.93;;;5.43;;
2850;SDS011;1433;49.976;8.342;2023-03-24T04:32:31;7.80;;;5.80;;
2850;SDS011;1433;49.976;8.342;2023-03-24T04:35:06;5.50;;;5.10;;
2850;SDS011;1433;49.976;8.342;2023-03-24T04:37:47;5.67;;;5.17;;
2850;SDS011;1433;49.976;8.342;2023-03-24T04:40:16;5.87;;;5.37;;
2850;SDS011;1433;49.976;8.342;2023-03-24T04:42:50;5.03;;;4.60;;
2850;SDS011;1433;49.976;8.342;2023-03-24T04:45:16;6.20;;;5.70;;
2850;SDS011;1433;49.976;8.342;2023-03-24T04:48:03;8.00;;;5.40;;
2850;SDS011;1433;49.976;8.342;2023-03-24T04:50:36;7.23;;;6.57;;
2850;SDS011;1433;49.976;8.342;2023-03-24T04:53:06;8.70;;;5.90;;
2850;SDS011;1433;49.976;8.342;2023-03-24T04:55:54;6.43;;;5.77;;
2850;SDS011;1433;49.976;8.342;2023-03-24T04:58:13;6.53;;;5.93;;
2850;SDS011;1433;49.976;8.342;2023-03-24T05:00:42;6.43;;;5.83;;
2850;SDS011;1433;49.976;8.342;2023-03-24T05:03:11;7.47;;;6.70;;
2850;SDS011;1433;49.976;8.342;2023-03-24T05:05:39;7.33;;;6.63;;
2850;SDS011;1433;49.976;8.342;2023-03-24T05:08:06;6.90;;;5.93;;
2850;SDS011;1433;49.976;8.342;2023-03-24T05:10:34;6.90;;;6.30;;
2850;SDS011;1433;49.976;8.342;2023-03-24T05:13:02;5.63;;;5.17;;
2850;SDS011;1433;49.976;8.342;2023-03-24T05:15:41;6.90;;;5.53;;
2850;SDS011;1433;49.976;8.342;2023-03-24T05:18:12;6.90;;;5.63;;
2850;SDS011;1433;49.976;8.342;2023-03-24T05:20:38;7.30;;;5.53;;
2850;SDS011;1433;49.976;8.342;2023-03-24T05:23:07;6.10;;;5.67;;
2850;SDS011;1433;49.976;8.342;2023-03-24T05:25:33;6.20;;;5.70;;
2850;SDS011;1433;49.976;8.342;2023-03-24T05:27:59;4.47;;;4.10;;
2850;SDS011;1433;49.976;8.342;2023-03-24T05:30:25;5.27;;;4.87;;
2850;SDS011;1433;49.976;8.342;2023-03-24T05:32:53;4.80;;;4.30;;
2850;SDS011;1433;49.976;8.342;2023-03-24T05:35:20;5.77;;;5.20;;
2850;SDS011;1433;49.976;8.342;2023-03-24T05:37:47;5.13;;;4.10;;
2850;SDS011;1433;49.976;8.342;2023-03-24T05:40:13;5.17;;;4.77;;
2850;SDS011;1433;49.976;8.342;2023-03-24T05:42:42;4.50;;;4.10;;
2850;SDS011;1433;49.976;8.342;2023-03-24T05:45:09;4.17;;;3.90;;
2850;SDS011;1433;49.976;8.342;2023-03-24T05:47:37;4.50;;;4.20;;
2850;SDS011;1433;49.976;8.342;2023-03-24T05:50:04;4.30;;;3.83;;
2850;SDS011;1433;49.976;8.342;2023-03-24T05:52:32;4.33;;;4.00;;
2850;SDS011;1433;49.976;8.342;2023-03-24T05:55:00;3.70;;;3.40;;
2850;SDS011;1433;49.976;8.342;2023-03-24T05:57:27;3.60;;;3.30;;
2850;SDS011;1433;49.976;8.342;2023-03-24T06:00:15;3.80;;;3.20;;
2850;SDS011;1433;49.976;8.342;2023-03-24T06:02:50;3.37;;;3.07;;
2850;SDS011;1433;49.976;8.342;2023-03-24T06:05:18;3.20;;;3.00;;
2850;SDS011;1433;49.976;8.342;2023-03-24T06:07:45;2.60;;;2.40;;
2850;SDS011;1433;49.976;8.342;2023-03-24T06:10:11;4.67;;;2.97;;
2850;SDS011;1433;49.976;8.342;2023-03-24T06:12:40;2.80;;;2.60;;
2850;SDS011;1433;49.976;8.342;2023-03-24T06:15:07;2.90;;;2.70;;
2850;SDS011;1433;49.976;8.342;2023-03-24T06:17:34;3.67;;;2.50;;
2850;SDS011;1433;49.976;8.342;2023-03-24T06:20:04;6.47;;;3.13;;
2850;SDS011;1433;49.976;8.342;2023-03-24T06:22:44;3.33;;;2.60;;
2850;SDS011;1433;49.976;8.342;2023-03-24T06:25:14;2.70;;;2.50;;
2850;SDS011;1433;49.976;8.342;2023-03-24T06:27:44;2.63;;;2.43;;
2850;SDS011;1433;49.976;8.342;2023-03-24T06:30:15;4.40;;;2.80;;
2850;SDS011;1433;49.976;8.342;2023-03-24T06:32:43;2.50;;;2.30;;
2850;SDS011;1433;49.976;8.342;2023-03-24T06:38:20;3.77;;;3.00;;
2850;SDS011;1433;49.976;8.342;2023-03-24T06:41:14;2.93;;;2.73;;
2850;SDS011;1433;49.976;8.342;2023-03-24T06:43:47;3.93;;;3.40;;
2850;SDS011;1433;49.976;8.342;2023-03-24T06:46:13;3.63;;;3.33;;
2850;SDS011;1433;49.976;8.342;2023-03-24T06:48:41;3.97;;;3.37;;
2850;SDS011;1433;49.976;8.342;2023-03-24T06:51:08;4.23;;;3.83;;
2850;SDS011;1433;49.976;8.342;2023-03-24T06:53:34;4.73;;;4.27;;
2850;SDS011;1433;49.976;8.342;2023-03-24T06:56:00;3.97;;;3.70;;
2850;SDS011;1433;49.976;8.342;2023-03-24T06:58:28;4.87;;;4.37;;
2850;SDS011;1433;49.976;8.342;2023-03-24T07:00:59;3.97;;;3.60;;
2850;SDS011;1433;49.976;8.342;2023-03-24T07:03:31;4.40;;;4.00;;
2850;SDS011;1433;49.976;8.342;2023-03-24T07:06:02;5.20;;;4.80;;
2850;SDS011;1433;49.976;8.342;2023-03-24T07:08:28;4.60;;;4.20;;
2850;SDS011;1433;49.976;8.342;2023-03-24T07:10:56;4.07;;;3.77;;
2850;SDS011;1433;49.976;8.342;2023-03-24T07:13:22;5.27;;;4.77;;
2850;SDS011;1433;49.976;8.342;2023-03-24T07:15:50;11.07;;;4.27;;
2850;SDS011;1433;49.976;8.342;2023-03-24T07:18:16;4.60;;;4.20;;
2850;SDS011;1433;49.976;8.342;2023-03-24T07:20:46;4.83;;;4.43;;
2850;SDS011;1433;49.976;8.342;2023-03-24T07:23:14;4.87;;;4.37;;
2850;SDS011;1433;49.976;8.342;2023-03-24T07:25:42;5.10;;;4.70;;
2850;SDS011;1433;49.976;8.342;2023-03-24T07:28:17;6.07;;;5.17;;
2850;SDS011;1433;49.976;8.342;2023-03-24T07:30:43;5.63;;;5.23;;
2850;SDS011;1433;49.976;8.342;2023-03-24T07:33:10;5.00;;;4.40;;
2850;SDS011;1433;49.976;8.342;2023-03-24T07:35:37;5.47;;;4.97;;
2850;SDS011;1433;49.976;8.342;2023-03-24T07:38:04;6.73;;;6.03;;
2850;SDS011;1433;49.976;8.342;2023-03-24T07:40:31;6.70;;;6.07;;
2850;SDS011;1433;49.976;8.342;2023-03-24T07:42:59;8.73;;;6.60;;
2850;SDS011;1433;49.976;8.342;2023-03-24T07:45:40;7.30;;;6.10;;
2850;SDS011;1433;49.976;8.342;2023-03-24T07:48:08;5.60;;;5.10;;
2850;SDS011;1433;49.976;8.342;2023-03-24T07:50:35;6.27;;;5.70;;
2850;SDS011;1433;49.976;8.342;2023-03-24T07:53:04;7.10;;;6.40;;
2850;SDS011;1433;49.976;8.342;2023-03-24T07:55:33;9.10;;;6.70;;
2850;SDS011;1433;49.976;8.342;2023-03-24T07:58:11;10.43;;;6.40;;
2850;SDS011;1433;49.976;8.342;2023-03-24T08:00:39;9.23;;;7.70;;
2850;SDS011;1433;49.976;8.342;2023-03-24T08:03:10;8.60;;;4.40;;
2850;SDS011;1433;49.976;8.342;2023-03-24T08:05:49;1.07;;;0.83;;
2850;SDS011;1433;49.976;8.342;2023-03-24T08:08:20;0.90;;;0.70;;
2850;SDS011;1433;49.976;8.342;2023-03-24T08:10:47;1.00;;;0.90;;
2850;SDS011;1433;49.976;8.342;2023-03-24T08:13:14;1.63;;;0.80;;
2850;SDS011;1433;49.976;8.342;2023-03-24T08:15:41;0.90;;;0.70;;
2850;SDS011;1433;49.976;8.342;2023-03-24T08:18:07;0.90;;;0.70;;
2850;SDS011;1433;49.976;8.342;2023-03-24T08:20:34;0.90;;;0.70;;
2850;SDS011;1433;49.976;8.342;2023-03-24T08:23:01;0.90;;;0.70;;
2850;SDS011;1433;49.976;8.342;2023-03-24T08:25:29;0.90;;;0.70;;
2850;SDS011;1433;49.976;8.342;2023-03-24T08:27:55;2.80;;;1.20;;
2850;SDS011;1433;49.976;8.342;2023-03-24T08:30:23;0.90;;;0.70;;
2850;SDS011;1433;49.976;8.342;2023-03-24T08:32:51;1.20;;;1.10;;
2850;SDS011;1433;49.976;8.342;2023-03-24T08:35:23;1.53;;;1.10;;
2850;SDS011;1433;49.976;8.342;2023-03-24T08:37:51;1.00;;;0.80;;
2850;SDS011;1433;49.976;8.342;2023-03-24T08:40:19;1.47;;;0.87;;
2850;SDS011;1433;49.976;8.342;2023-03-24T08:42:49;1.10;;;1.00;;
2850;SDS011;1433;49.976;8.342;2023-03-24T08:45:17;1.07;;;0.97;;
2850;SDS011;1433;49.976;8.342;2023-03-24T08:47:46;1.47;;;1.37;;
2850;SDS011;1433;49.976;8.342;2023-03-24T08:50:15;1.00;;;0.80;;
2850;SDS011;1433;49.976;8.342;2023-03-24T08:52:41;1.20;;;0.80;;
2850;SDS011;1433;49.976;8.342;2023-03-24T08:55:07;0.90;;;0.80;;
2850;SDS011;1433;49.976;8.342;2023-03-24T08:57:35;0.90;;;0.70;;
2850;SDS011;1433;49.976;8.342;2023-03-24T09:00:01;0.90;;;0.80;;
2850;SDS011;1433;49.976;8.342;2023-03-24T09:02:30;1.00;;;0.90;;
2850;SDS011;1433;49.976;8.342;2023-03-24T09:04:56;1.43;;;1.20;;
2850;SDS011;1433;49.976;8.342;2023-03-24T09:07:23;0.90;;;0.80;;
2850;SDS011;1433;49.976;8.342;2023-03-24T09:09:49;1.00;;;0.70;;
2850;SDS011;1433;49.976;8.342;2023-03-24T09:12:15;0.90;;;0.70;;
2850;SDS011;1433;49.976;8.342;2023-03-24T09:14:46;0.90;;;0.70;;
2850;SDS011;1433;49.976;8.342;2023-03-24T09:17:17;1.40;;;0.80;;
2850;SDS011;1433;49.976;8.342;2023-03-24T09:19:43;0.90;;;0.70;;
2850;SDS011;1433;49.976;8.342;2023-03-24T09:22:10;0.90;;;0.70;;
2850;SDS011;1433;49.976;8.342;2023-03-24T09:24:36;0.90;;;0.77;;
2850;SDS011;1433;49.976;8.342;2023-03-24T09:27:03;0.90;;;0.70;;
2850;SDS011;1433;49.976;8.342;2023-03-24T09:29:29;0.90;;;0.73;;
2850;SDS011;1433;49.976;8.342;2023-03-24T09:31:56;0.90;;;0.70;;
2850;SDS011;1433;49.976;8.342;2023-03-24T09:34:23;0.90;;;0.70;;
2850;SDS011;1433;49.976;8.342;2023-03-24T09:36:50;1.43;;;1.20;;
2850;SDS011;1433;49.976;8.342;2023-03-24T09:39:16;0.90;;;0.73;;
2850;SDS011;1433;49.976;8.342;2023-03-24T09:41:43;0.90;;;0.70;;
2850;SDS011;1433;49.976;8.342;2023-03-24T09:49:40;1.40;;;1.13;;
2850;SDS011;1433;49.976;8.342;2023-03-24T09:52:09;0.90;;;0.70;;
2850;SDS011;1433;49.976;8.342;2023-03-24T09:59:53;1.00;;;0.80;;
2850;SDS011;1433;49.976;8.342;2023-03-24T10:02:20;1.13;;;0.90;;
2850;SDS011;1433;49.976;8.342;2023-03-24T10:04:47;0.90;;;0.70;;
2850;SDS011;1433;49.976;8.342;2023-03-24T10:10:00;0.90;;;0.70;;
2850;SDS011;1433;49.976;8.342;2023-03-24T10:17:59;0.93;;;0.73;;
2850;SDS011;1433;49.976;8.342;2023-03-24T10:24:17;0.90;;;0.70;;
2850;SDS011;1433;49.976;8.342;2023-03-24T10:26:52;0.90;;;0.70;;
2850;SDS011;1433;49.976;8.342;2023-03-24T10:34:46;0.90;;;0.70;;
2850;SDS011;1433;49.976;8.342;2023-03-24T10:37:15;0.90;;;0.70;;
2850;SDS011;1433;49.976;8.342;2023-03-24T10:39:42;1.27;;;1.17;;
2850;SDS011;1433;49.976;8.342;2023-03-24T10:42:12;0.90;;;0.80;;
2850;SDS011;1433;49.976;8.342;2023-03-24T10:44:40;0.90;;;0.80;;
2850;SDS011;1433;49.976;8.342;2023-03-24T10:47:08;0.90;;;0.60;;
2850;SDS011;1433;49.976;8.342;2023-03-24T10:49:35;0.90;;;0.70;;
2850;SDS011;1433;49.976;8.342;2023-03-24T10:52:04;0.90;;;0.70;;
2850;SDS011;1433;49.976;8.342;2023-03-24T10:54:32;1.00;;;0.80;;
2850;SDS011;1433;49.976;8.342;2023-03-24T10:59:30;0.90;;;0.80;;
2850;SDS011;1433;49.976;8.342;2023-03-24T11:04:55;0.90;;;0.70;;
2850;SDS011;1433;49.976;8.342;2023-03-24T11:07:37;1.10;;;0.90;;
2850;SDS011;1433;49.976;8.342;2023-03-24T11:10:06;1.00;;;0.80;;
2850;SDS011;1433;49.976;8.342;2023-03-24T11:12:42;0.90;;;0.70;;
2850;SDS011;1433;49.976;8.342;2023-03-24T11:17:44;0.90;;;0.70;;
2850;SDS011;1433;49.976;8.342;2023-03-24T11:20:23;1.10;;;1.00;;
2850;SDS011;1433;49.976;8.342;2023-03-24T11:22:53;1.00;;;0.70;;
2850;SDS011;1433;49.976;8.342;2023-03-24T11:25:29;1.00;;;0.80;;
2850;SDS011;1433;49.976;8.342;2023-03-24T11:27:58;1.00;;;0.73;;
2850;SDS011;1433;49.976;8.342;2023-03-24T11:30:32;2.20;;;0.80;;
2850;SDS011;1433;49.976;8.342;2023-03-24T11:33:01;1.10;;;1.00;;
2850;SDS011;1433;49.976;8.342;2023-03-24T11:35:29;1.00;;;0.70;;
2850;SDS011;1433;49.976;8.342;2023-03-24T11:37:56;1.00;;;0.80;;
2850;SDS011;1433;49.976;8.342;2023-03-24T11:40:26;1.00;;;0.70;;
2850;SDS011;1433;49.976;8.342;2023-03-24T11:42:59;1.90;;;1.80;;
2850;SDS011;1433;49.976;8.342;2023-03-24T11:45:40;1.27;;;1.17;;
2850;SDS011;1433;49.976;8.342;2023-03-24T11:48:23;1.00;;;0.70;;
2850;SDS011;1433;49.976;8.342;2023-03-24T11:50:51;1.03;;;0.93;;
2850;SDS011;1433;49.976;8.342;2023-03-24T11:53:21;1.00;;;0.70;;
2850;SDS011;1433;49.976;8.342;2023-03-24T11:56:00;3.20;;;1.70;;
2850;SDS011;1433;49.976;8.342;2023-03-24T12:01:03;3.10;;;1.77;;
2850;SDS011;1433;49.976;8.342;2023-03-24T12:14:00;2.50;;;1.60;;
2850;SDS011;1433;49.976;8.342;2023-03-24T12:30:30;4.30;;;2.07;;
2850;SDS011;1433;49.976;8.342;2023-03-24T12:35:39;2.00;;;1.60;;
2850;SDS011;1433;49.976;8.342;2023-03-24T12:38:17;2.90;;;1.60;;
2850;SDS011;1433;49.976;8.342;2023-03-24T12:43:54;4.70;;;1.83;;
2850;SDS011;1433;49.976;8.342;2023-03-24T12:57:13;2.70;;;1.50;;
2850;SDS011;1433;49.976;8.342;2023-03-24T12:59:46;1.90;;;1.70;;
2850;SDS011;1433;49.976;8.342;2023-03-24T13:04:56;4.80;;;1.90;;
2850;SDS011;1433;49.976;8.342;2023-03-24T13:07:25;2.73;;;2.13;;
2850;SDS011;1433;49.976;8.342;2023-03-24T13:09:59;4.73;;;1.73;;
2850;SDS011;1433;49.976;8.342;2023-03-24T13:12:34;1.53;;;1.37;;
2850;SDS011;1433;49.976;8.342;2023-03-24T13:15:21;5.77;;;1.87;;
2850;SDS011;1433;49.976;8.342;2023-03-24T13:20:24;5.20;;;1.60;;
2850;SDS011;1433;49.976;8.342;2023-03-24T13:22:58;2.60;;;1.83;;
2850;SDS011;1433;49.976;8.342;2023-03-24T13:28:10;3.90;;;1.57;;
2850;SDS011;1433;49.976;8.342;2023-03-24T13:30:39;3.90;;;1.80;;
2850;SDS011;1433;49.976;8.342;2023-03-24T13:33:11;2.33;;;1.50;;
2850;SDS011;1433;49.976;8.342;2023-03-24T13:38:34;2.17;;;1.57;;
2850;SDS011;1433;49.976;8.342;2023-03-24T13:41:15;2.13;;;1.70;;
2850;SDS011;1433;49.976;8.342;2023-03-24T13:43:38;2.83;;;1.40;;
2850;SDS011;1433;49.976;8.342;2023-03-24T13:46:11;1.80;;;1.40;;
2850;SDS011;1433;49.976;8.342;2023-03-24T13:48:40;2.90;;;1.63;;
2850;SDS011;1433;49.976;8.342;2023-03-24T13:51:16;4.90;;;1.63;;
2850;SDS011;1433;49.976;8.342;2023-03-24T13:53:57;3.30;;;1.50;;
2850;SDS011;1433;49.976;8.342;2023-03-24T13:56:32;3.33;;;1.40;;
2850;SDS011;1433;49.976;8.342;2023-03-24T14:02:10;5.67;;;1.90;;
2850;SDS011;1433;49.976;8.342;2023-03-24T14:04:20;3.30;;;1.67;;
2850;SDS011;1433;49.976;8.342;2023-03-24T14:14:25;2.43;;;1.80;;
2850;SDS011;1433;49.976;8.342;2023-03-24T14:19:31;4.50;;;1.80;;
2850;SDS011;1433;49.976;8.342;2023-03-24T14:24:43;2.90;;;1.90;;
2850;SDS011;1433;49.976;8.342;2023-03-24T14:27:54;2.00;;;1.50;;
2850;SDS011;1433;49.976;8.342;2023-03-24T14:29:49;3.80;;;2.10;;
2850;SDS011;1433;49.976;8.342;2023-03-24T14:32:19;1.63;;;1.40;;
2850;SDS011;1433;49.976;8.342;2023-03-24T14:34:51;4.83;;;1.57;;
2850;SDS011;1433;49.976;8.342;2023-03-24T14:37:24;1.70;;;1.60;;
2850;SDS011;1433;49.976;8.342;2023-03-24T14:39:52;3.77;;;1.40;;
2850;SDS011;1433;49.976;8.342;2023-03-24T14:45:03;2.47;;;2.00;;
2850;SDS011;1433;49.976;8.342;2023-03-24T14:47:36;4.13;;;1.80;;
2850;SDS011;1433;49.976;8.342;2023-03-24T14:50:18;5.20;;;1.40;;
2850;SDS011;1433;49.976;8.342;2023-03-24T14:52:49;1.83;;;1.70;;
2850;SDS011;1433;49.976;8.342;2023-03-24T14:55:19;2.83;;;1.70;;
2850;SDS011;1433;49.976;8.342;2023-03-24T14:57:53;1.97;;;1.63;;
2850;SDS011;1433;49.976;8.342;2023-03-24T15:00:25;1.77;;;1.40;;
2850;SDS011;1433;49.976;8.342;2023-03-24T15:02:55;2.90;;;1.70;;
2850;SDS011;1433;49.976;8.342;2023-03-24T15:10:37;4.47;;;1.60;;
2850;SDS011;1433;49.976;8.342;2023-03-24T15:15:34;2.90;;;1.43;;
2850;SDS011;1433;49.976;8.342;2023-03-24T15:18:00;2.43;;;1.50;;
2850;SDS011;1433;49.976;8.342;2023-03-24T15:20:27;2.27;;;1.33;;
2850;SDS011;1433;49.976;8.342;2023-03-24T15:23:03;4.77;;;1.93;;
2850;SDS011;1433;49.976;8.342;2023-03-24T15:25:31;3.40;;;1.80;;
2850;SDS011;1433;49.976;8.342;2023-03-24T15:27:57;3.17;;;1.70;;
2850;SDS011;1433;49.976;8.342;2023-03-24T15:30:23;2.60;;;1.83;;
2850;SDS011;1433;49.976;8.342;2023-03-24T15:32:50;5.00;;;1.83;;
2850;SDS011;1433;49.976;8.342;2023-03-24T15:35:18;5.17;;;2.07;;
2850;SDS011;1433;49.976;8.342;2023-03-24T15:37:54;5.43;;;1.40;;
2850;SDS011;1433;49.976;8.342;2023-03-24T15:42:56;2.33;;;1.93;;
2850;SDS011;1433;49.976;8.342;2023-03-24T15:47:57;3.00;;;1.73;;
2850;SDS011;1433;49.976;8.342;2023-03-24T15:53:06;4.17;;;1.80;;
2850;SDS011;1433;49.976;8.342;2023-03-24T15:55:43;4.13;;;2.17;;
2850;SDS011;1433;49.976;8.342;2023-03-24T16:00:51;3.10;;;1.60;;
2850;SDS011;1433;49.976;8.342;2023-03-24T16:03:20;4.33;;;1.50;;
2850;SDS011;1433;49.976;8.342;2023-03-24T16:05:49;2.73;;;1.97;;
2850;SDS011;1433;49.976;8.342;2023-03-24T16:08:32;3.70;;;1.60;;
2850;SDS011;1433;49.976;8.342;2023-03-24T16:11:03;3.80;;;2.30;;
2850;SDS011;1433;49.976;8.342;2023-03-24T16:13:33;4.57;;;2.00;;
2850;SDS011;1433;49.976;8.342;2023-03-24T16:16:00;3.50;;;1.40;;
2850;SDS011;1433;49.976;8.342;2023-03-24T16:18:38;3.90;;;2.20;;
2850;SDS011;1433;49.976;8.342;2023-03-24T16:23:50;3.40;;;2.00;;
2850;SDS011;1433;49.976;8.342;2023-03-24T16:26:22;6.13;;;2.20;;
2850;SDS011;1433;49.976;8.342;2023-03-24T16:28:53;3.03;;;1.70;;
2850;SDS011;1433;49.976;8.342;2023-03-24T16:31:23;4.47;;;1.43;;
2850;SDS011;1433;49.976;8.342;2023-03-24T16:33:51;3.33;;;1.40;;
2850;SDS011;1433;49.976;8.342;2023-03-24T16:36:19;2.53;;;1.60;;
2850;SDS011;1433;49.976;8.342;2023-03-24T16:38:48;1.93;;;1.57;;
2850;SDS011;1433;49.976;8.342;2023-03-24T16:41:14;1.80;;;1.30;;
2850;SDS011;1433;49.976;8.342;2023-03-24T16:43:41;4.03;;;1.70;;
2850;SDS011;1433;49.976;8.342;2023-03-24T16:46:10;3.20;;;2.00;;
2850;SDS011;1433;49.976;8.342;2023-03-24T16:48:43;2.50;;;1.70;;
2850;SDS011;1433;49.976;8.342;2023-03-24T16:51:13;3.70;;;1.80;;
2850;SDS011;1433;49.976;8.342;2023-03-24T16:53:40;4.40;;;2.00;;
2850;SDS011;1433;49.976;8.342;2023-03-24T16:56:08;2.30;;;1.67;;
2850;SDS011;1433;49.976;8.342;2023-03-24T16:58:37;1.90;;;1.67;;
2850;SDS011;1433;49.976;8.342;2023-03-24T17:03:44;3.67;;;1.73;;
2850;SDS011;1433;49.976;8.342;2023-03-24T17:06:12;2.50;;;1.33;;
2850;SDS011;1433;49.976;8.342;2023-03-24T17:08:38;2.07;;;1.60;;
2850;SDS011;1433;49.976;8.342;2023-03-24T17:11:07;4.27;;;1.73;;
2850;SDS011;1433;49.976;8.342;2023-03-24T17:13:35;4.30;;;1.70;;
2850;SDS011;1433;49.976;8.342;2023-03-24T17:16:01;1.97;;;1.40;;
2850;SDS011;1433;49.976;8.342;2023-03-24T17:18:28;2.90;;;2.00;;
2850;SDS011;1433;49.976;8.342;2023-03-24T17:20:54;2.40;;;1.90;;
2850;SDS011;1433;49.976;8.342;2023-03-24T17:23:21;2.70;;;1.50;;
2850;SDS011;1433;49.976;8.342;2023-03-24T17:25:47;3.33;;;1.87;;
2850;SDS011;1433;49.976;8.342;2023-03-24T17:28:15;4.73;;;2.70;;
2850;SDS011;1433;49.976;8.342;2023-03-24T17:30:42;4.40;;;2.10;;
2850;SDS011;1433;49.976;8.342;2023-03-24T17:33:12;2.17;;;1.50;;
2850;SDS011;1433;49.976;8.342;2023-03-24T17:35:39;5.07;;;2.93;;
2850;SDS011;1433;49.976;8.342;2023-03-24T17:38:08;2.87;;;1.50;;
2850;SDS011;1433;49.976;8.342;2023-03-24T17:40:37;10.47;;;2.20;;
2850;SDS011;1433;49.976;8.342;2023-03-24T17:43:06;3.70;;;1.93;;
2850;SDS011;1433;49.976;8.342;2023-03-24T17:45:34;3.97;;;1.70;;
2850;SDS011;1433;49.976;8.342;2023-03-24T17:48:00;5.50;;;1.80;;
2850;SDS011;1433;49.976;8.342;2023-03-24T17:50:26;3.17;;;2.40;;
2850;SDS011;1433;49.976;8.342;2023-03-24T17:52:54;2.43;;;1.93;;
2850;SDS011;1433;49.976;8.342;2023-03-24T17:55:20;5.00;;;1.87;;
2850;SDS011;1433;49.976;8.342;2023-03-24T17:57:46;5.07;;;2.63;;
2850;SDS011;1433;49.976;8.342;2023-03-24T18:00:13;4.00;;;2.30;;
2850;SDS011;1433;49.976;8.342;2023-03-24T18:02:42;14.07;;;2.77;;
2850;SDS011;1433;49.976;8.342;2023-03-24T18:05:09;4.07;;;2.30;;
2850;SDS011;1433;49.976;8.342;2023-03-24T18:07:37;5.70;;;1.87;;
2850;SDS011;1433;49.976;8.342;2023-03-24T18:10:04;4.40;;;1.50;;
2850;SDS011;1433;49.976;8.342;2023-03-24T18:12:32;6.63;;;1.93;;
2850;SDS011;1433;49.976;8.342;2023-03-24T18:15:00;4.80;;;2.40;;
2850;SDS011;1433;49.976;8.342;2023-03-24T18:17:26;4.10;;;2.10;;
2850;SDS011;1433;49.976;8.342;2023-03-24T18:19:54;7.23;;;2.50;;
2850;SDS011;1433;49.976;8.342;2023-03-24T18:22:21;3.80;;;1.80;;
2850;SDS011;1433;49.976;8.342;2023-03-24T18:24:48;5.80;;;2.43;;
2850;SDS011;1433;49.976;8.342;2023-03-24T18:27:14;3.30;;;2.17;;